createdAt,value
2019-01-30T00:02:39.345Z,98779.70
2019-01-30T00:07:41.077Z,98767.88
2019-01-30T00:12:42.711Z,98762.84
2019-01-30T00:17:44.283Z,98752.41
2019-01-30T00:22:45.952Z,98749.13
2019-01-30T00:27:47.618Z,98741.17
2019-01-30T00:32:49.287Z,98736.05
2019-01-30T00:37:50.963Z,98729.35
2019-01-30T00:42:52.629Z,98731.73
2019-01-30T00:47:54.207Z,98723.67
2019-01-30T00:52:55.771Z,98728.84
2019-01-30T00:57:57.341Z,98713.69
2019-01-30T01:02:59.021Z,98716.73
2019-01-30T01:08:00.700Z,98710.06
2019-01-30T01:13:02.260Z,98709.77
2019-01-30T01:18:04.292Z,98703.41
2019-01-30T01:23:05.998Z,98704.05
2019-01-30T01:28:07.646Z,98696.05
2019-01-30T01:33:09.329Z,98688.21
2019-01-30T01:38:10.901Z,98688.49
2019-01-30T01:43:12.479Z,98689.64
2019-01-30T01:48:14.047Z,98676.63
2019-01-30T01:53:15.605Z,98677.23
2019-01-30T01:58:17.200Z,98671.16
2019-01-30T02:03:18.784Z,98670.32
2019-01-30T02:08:20.506Z,98656.22
2019-01-30T02:13:22.146Z,98650.91
2019-01-30T02:18:23.692Z,98644.31
2019-01-30T02:23:25.417Z,98646.69
2019-01-30T02:28:26.962Z,98642.95
2019-01-30T02:33:28.533Z,98640.62
2019-01-30T02:38:30.218Z,98638.50
2019-01-30T02:43:31.778Z,98626.33
2019-01-30T02:48:33.489Z,98622.59
2019-01-30T02:53:35.083Z,98607.86
2019-01-30T02:58:36.678Z,98607.51
2019-01-30T03:03:38.254Z,98607.65
2019-01-30T03:08:39.805Z,98595.14
2019-01-30T03:13:41.395Z,98595.04
2019-01-30T03:18:42.948Z,98598.56
2019-01-30T03:23:44.531Z,98590.13
2019-01-30T03:28:46.103Z,98583.58
2019-01-30T03:33:47.727Z,98579.16
2019-01-30T03:38:49.296Z,98566.98
2019-01-30T03:43:50.834Z,98567.73
2019-01-30T03:48:52.515Z,98567.59
2019-01-30T03:53:54.093Z,98573.55
2019-01-30T03:58:55.681Z,98556.22
2019-01-30T04:03:57.367Z,98563.86
2019-01-30T04:08:58.962Z,98552.59
2019-01-30T04:14:00.867Z,98552.84
2019-01-30T04:19:02.744Z,98548.28
2019-01-30T04:24:04.420Z,98552.54
2019-01-30T04:29:06.080Z,98542.81
2019-01-30T04:34:07.653Z,98528.53
2019-01-30T04:39:09.228Z,98525.50
2019-01-30T04:44:10.941Z,98518.36
2019-01-30T04:49:12.608Z,98513.90
2019-01-30T04:54:14.168Z,98503.67
2019-01-30T04:59:15.737Z,98498.17
2019-01-30T05:04:17.393Z,98500.95
2019-01-30T05:09:18.965Z,98496.08
2019-01-30T05:14:20.672Z,98485.27
2019-01-30T05:19:22.232Z,98484.08
2019-01-30T05:24:23.797Z,98490.64
2019-01-30T05:29:25.373Z,98481.30
2019-01-30T05:34:26.940Z,98489.97
2019-01-30T05:39:28.617Z,98483.53
2019-01-30T05:44:30.177Z,98485.63
2019-01-30T05:49:31.764Z,98484.92
2019-01-30T05:54:33.418Z,98482.25
2019-01-30T05:59:34.968Z,98479.67
2019-01-30T06:04:36.553Z,98470.79
2019-01-30T06:09:38.121Z,98458.70
2019-01-30T06:14:39.680Z,98459.33
2019-01-30T06:19:41.240Z,98453.58
2019-01-30T06:24:42.822Z,98451.48
2019-01-30T06:29:44.385Z,98454.07
2019-01-30T06:34:45.944Z,98449.66
2019-01-30T06:39:47.507Z,98458.44
2019-01-30T06:44:49.063Z,98453.28
2019-01-30T06:49:50.762Z,98451.74
2019-01-30T06:54:52.324Z,98457.94
2019-01-30T06:59:53.873Z,98448.38
2019-01-30T07:04:55.554Z,98445.44
2019-01-30T07:09:57.099Z,98443.89
2019-01-30T07:14:58.665Z,98442.41
2019-01-30T07:20:00.284Z,98438.45
2019-01-30T07:25:01.858Z,98430.03
2019-01-30T07:30:07.475Z,98435.02
2019-01-30T07:35:09.442Z,98442.36
2019-01-30T07:40:11.365Z,98432.98
2019-01-30T07:45:14.324Z,98435.57
2019-01-30T07:50:16.001Z,98435.66
2019-01-30T07:55:17.679Z,98435.02
2019-01-30T08:00:24.389Z,98437.94
2019-01-30T08:05:26.063Z,98437.83
2019-01-30T08:10:27.855Z,98435.23
2019-01-30T08:15:29.599Z,98435.00
2019-01-30T08:20:31.276Z,98438.00
2019-01-30T08:25:33.420Z,98440.44
2019-01-30T08:30:35.173Z,98434.99
2019-01-30T08:35:36.853Z,98431.64
2019-01-30T08:40:38.436Z,98436.77
2019-01-30T08:45:40.133Z,98444.44
2019-01-30T08:50:41.877Z,98436.78
2019-01-30T08:55:43.463Z,98435.73
2019-01-30T09:00:45.176Z,98426.66
2019-01-30T09:05:46.759Z,98442.42
2019-01-30T09:10:48.457Z,98437.22
2019-01-30T09:15:50.051Z,98442.18
2019-01-30T09:20:51.626Z,98427.56
2019-01-30T09:25:53.185Z,98423.59
2019-01-30T09:30:54.864Z,98428.50
2019-01-30T09:35:56.600Z,98423.72
2019-01-30T09:40:58.227Z,98417.53
2019-01-30T09:45:59.817Z,98418.27
2019-01-30T09:51:01.582Z,98416.63
2019-01-30T09:56:03.328Z,98421.27
2019-01-30T10:01:05.012Z,98421.83
2019-01-30T10:06:06.803Z,98414.16
2019-01-30T10:11:08.453Z,98411.84
2019-01-30T10:16:10.266Z,98408.72
2019-01-30T10:21:11.998Z,98394.26
2019-01-30T10:26:13.755Z,98400.79
2019-01-30T10:31:15.346Z,98398.48
2019-01-30T10:36:17.144Z,98396.97
2019-01-30T10:41:19.154Z,98390.64
2019-01-30T10:46:21.242Z,98381.96
2019-01-30T10:51:23.335Z,98381.33
2019-01-30T10:56:25.423Z,98378.80
2019-01-30T11:01:27.089Z,98378.24
2019-01-30T11:06:28.715Z,98368.38
2019-01-30T11:11:30.533Z,98355.44
2019-01-30T11:16:32.304Z,98352.41
2019-01-30T11:21:34.140Z,98349.20
2019-01-30T11:26:36.522Z,98341.58
2019-01-30T11:31:38.666Z,98336.91
2019-01-30T11:36:40.467Z,98327.00
2019-01-30T11:41:42.254Z,98316.19
2019-01-30T11:46:44.341Z,98317.27
2019-01-30T11:51:47.120Z,98304.55
2019-01-30T11:56:49.016Z,98301.00
2019-01-30T12:01:50.835Z,98292.94
2019-01-30T12:06:52.417Z,98295.09
2019-01-30T12:11:54.392Z,98289.84
2019-01-30T12:16:56.233Z,98274.44
2019-01-30T12:21:58.095Z,98280.58
2019-01-30T12:26:59.875Z,98282.97
2019-01-30T12:32:01.651Z,98280.67
2019-01-30T12:37:03.533Z,98271.70
2019-01-30T12:42:05.258Z,98271.80
2019-01-30T12:47:08.024Z,98271.96
2019-01-30T12:52:09.836Z,98264.27
2019-01-30T12:57:11.631Z,98268.14
2019-01-30T13:02:13.423Z,98266.98
2019-01-30T13:07:15.319Z,98267.12
2019-01-30T13:12:17.151Z,98256.73
2019-01-30T13:17:18.850Z,98258.08
2019-01-30T13:22:20.451Z,98259.55
2019-01-30T13:27:22.386Z,98254.17
2019-01-30T13:32:23.968Z,98250.11
2019-01-30T13:37:25.696Z,98262.09
2019-01-30T13:42:27.350Z,98261.42
2019-01-30T13:47:29.034Z,98261.25
2019-01-30T13:52:30.815Z,98243.27
2019-01-30T13:57:32.383Z,98253.50
2019-01-30T14:02:34.056Z,98255.80
2019-01-30T14:07:35.756Z,98253.05
2019-01-30T14:12:37.328Z,98251.40
2019-01-30T14:17:39.156Z,98252.23
2019-01-30T14:22:40.817Z,98256.62
2019-01-30T14:27:42.530Z,98252.22
2019-01-30T14:32:44.509Z,98248.66
2019-01-30T14:37:46.412Z,98250.78
2019-01-30T14:42:48.430Z,98248.19
2019-01-30T14:47:50.388Z,98243.93
2019-01-30T14:52:52.068Z,98244.27
2019-01-30T14:57:53.935Z,98248.81
2019-01-30T15:02:55.932Z,98243.13
2019-01-30T15:07:57.967Z,98242.16
2019-01-30T15:12:59.655Z,98241.84
2019-01-30T15:18:01.349Z,98243.80
2019-01-30T15:23:05.282Z,98242.00
2019-01-30T15:28:07.597Z,98247.95
2019-01-30T15:33:09.588Z,98247.39
2019-01-30T15:38:13.263Z,98244.44
2019-01-30T15:43:15.116Z,98240.65
2019-01-30T15:48:16.803Z,98242.56
2019-01-30T15:53:20.775Z,98250.13
2019-01-30T15:58:22.492Z,98246.48
2019-01-30T16:03:24.370Z,98250.47
2019-01-30T16:08:26.484Z,98260.70
2019-01-30T16:13:28.423Z,98262.16
2019-01-30T16:18:30.060Z,98265.42
2019-01-30T16:23:31.761Z,98267.02
2019-01-30T16:28:33.472Z,98268.81
2019-01-30T16:33:35.169Z,98280.48
2019-01-30T16:38:36.873Z,98282.41
2019-01-30T16:43:38.716Z,98295.70
2019-01-30T16:48:40.328Z,98297.80
2019-01-30T16:53:41.933Z,98303.91
2019-01-30T16:58:43.564Z,98300.34
2019-01-30T17:03:45.246Z,98306.37
2019-01-30T17:08:46.830Z,98318.03
2019-01-30T17:13:48.421Z,98312.69
2019-01-30T17:18:49.993Z,98310.09
2019-01-30T17:23:51.684Z,98308.00
2019-01-30T17:28:53.304Z,98311.42
2019-01-30T17:33:55.043Z,98308.66
2019-01-30T17:38:56.831Z,98303.02
2019-01-30T17:43:58.498Z,98311.42
2019-01-30T17:49:00.111Z,98315.14
2019-01-30T17:54:01.702Z,98315.78
2019-01-30T17:59:03.467Z,98319.17
2019-01-30T18:04:05.355Z,98311.30
2019-01-30T18:09:08.476Z,98317.11
2019-01-30T18:14:10.064Z,98322.37
2019-01-30T18:19:11.632Z,98322.07
2019-01-30T18:24:13.487Z,98325.63
2019-01-30T18:29:15.076Z,98327.09
2019-01-30T18:34:16.654Z,98315.45
2019-01-30T18:39:18.305Z,98325.00
2019-01-30T18:44:19.873Z,98325.95
2019-01-30T18:49:27.858Z,98321.70
2019-01-30T18:54:27.077Z,98329.02
2019-01-30T18:59:28.880Z,98326.09
2019-01-30T19:04:30.652Z,98331.61
2019-01-30T19:09:32.454Z,98329.98
2019-01-30T19:14:34.387Z,98329.98
2019-01-30T19:19:36.109Z,98328.19
2019-01-30T19:24:37.896Z,98329.15
2019-01-30T19:29:41.517Z,98327.25
2019-01-30T19:34:43.194Z,98333.11
2019-01-30T19:39:44.793Z,98329.05
2019-01-30T19:44:46.392Z,98335.53
2019-01-30T19:49:47.981Z,98336.83
2019-01-30T19:54:49.669Z,98337.80
2019-01-30T19:59:51.430Z,98338.13
2019-01-30T20:04:53.103Z,98337.66
2019-01-30T20:09:54.690Z,98344.14
2019-01-30T20:14:56.252Z,98345.61
2019-01-30T20:19:57.860Z,98350.93
2019-01-30T20:24:59.485Z,98347.04
2019-01-30T20:30:01.252Z,98353.86
2019-01-30T20:35:04.363Z,98355.69
2019-01-30T20:40:10.219Z,98359.25
2019-01-30T20:45:12.169Z,98363.47
2019-01-30T20:50:16.042Z,98365.44
2019-01-30T20:55:19.148Z,98361.73
2019-01-30T21:00:26.273Z,98368.23
2019-01-30T21:05:27.965Z,98370.82
2019-01-30T21:10:32.133Z,98366.39
2019-01-30T21:15:34.008Z,98381.62
2019-01-30T21:20:35.798Z,98376.40
2019-01-30T21:25:37.380Z,98371.05
2019-01-30T21:30:39.116Z,98376.66
2019-01-30T21:35:40.694Z,98380.71
2019-01-30T21:40:42.412Z,98388.83
2019-01-30T21:45:44.077Z,98388.98
2019-01-30T21:50:45.764Z,98389.12
2019-01-30T21:55:47.477Z,98382.30
2019-01-30T22:00:49.171Z,98384.09
2019-01-30T22:05:50.841Z,98389.62
2019-01-30T22:10:52.414Z,98379.38
2019-01-30T22:15:54.142Z,98381.34
2019-01-30T22:20:55.682Z,98387.69
2019-01-30T22:25:57.285Z,98398.07
2019-01-30T22:30:58.876Z,98402.16
2019-01-30T22:36:00.458Z,98402.16
2019-01-30T22:41:02.020Z,98404.89
2019-01-30T22:46:03.599Z,98416.05
2019-01-30T22:51:05.297Z,98415.88
2019-01-30T22:56:06.879Z,98413.75
2019-01-30T23:01:24.769Z,98424.63
2019-01-30T23:07:12.054Z,98425.30
2019-01-30T23:12:32.544Z,98414.46
2019-01-30T23:17:40.413Z,98416.89
2019-01-30T23:23:13.981Z,98416.77
2019-01-30T23:28:26.324Z,98419.66
2019-01-30T23:33:40.364Z,98419.19
2019-01-30T23:38:53.495Z,98418.27
2019-01-30T23:44:46.254Z,98426.05
2019-01-30T23:50:17.896Z,98428.69
2019-01-30T23:55:59.954Z,98422.70
